Time;durP1;ratioP1;P1;durP2;ratioP2;P2;SDS_P1;SDS_P2;PMS_P1;PMS_P2;Temp;Humidity;BMP_temperature;BMP_pressure;BME280_temperature;BME280_humidity;BME280_pressure;Samples;Min_cycle;Max_cycle;Signal;HPM_P1;HPM_P2
2023/06/22 00:00:52;;;;;;;8.00;5.95;;;;;;;;;;4982133;28;20042;-81
2023/06/22 00:03:19;;;;;;;9.75;5.88;;;;;;;;;;4977532;28;20029;-81
2023/06/22 00:05:48;;;;;;;8.10;5.47;;;;;;;;;;4973706;28;20039;-81
2023/06/22 00:08:14;;;;;;;6.65;5.10;;;;;;;;;;4976954;28;20023;-82
2023/06/22 00:10:39;;;;;;;8.05;5.30;;;;;;;;;;4976698;28;20026;-81
2023/06/22 00:13:05;;;;;;;8.80;5.82;;;;;;;;;;4976479;28;20042;-82
2023/06/22 00:15:36;;;;;;;8.38;5.47;;;;;;;;;;4974043;28;20026;-81
2023/06/22 00:18:02;;;;;;;6.43;4.93;;;;;;;;;;4957962;28;20046;-82
2023/06/22 00:20:27;;;;;;;9.27;5.40;;;;;;;;;;4972672;28;20035;-81
2023/06/22 00:22:54;;;;;;;8.95;6.30;;;;;;;;;;4959721;28;20280;-81
2023/06/22 00:25:19;;;;;;;9.52;5.85;;;;;;;;;;4976222;28;20054;-81
2023/06/22 00:27:44;;;;;;;7.85;5.40;;;;;;;;;;4975392;28;20082;-81
2023/06/22 00:30:10;;;;;;;7.90;5.35;;;;;;;;;;4977494;28;20035;-82
2023/06/22 00:32:36;;;;;;;8.50;5.72;;;;;;;;;;4977880;28;20042;-82
2023/06/22 00:35:01;;;;;;;8.50;5.43;;;;;;;;;;4961519;28;20019;-82
2023/06/22 00:37:29;;;;;;;10.98;6.00;;;;;;;;;;4989880;28;20019;-81
2023/06/22 00:39:55;;;;;;;9.48;5.82;;;;;;;;;;4975038;28;20683;-81
2023/06/22 00:42:20;;;;;;;10.23;5.75;;;;;;;;;;4976844;28;20027;-82
2023/06/22 00:44:46;;;;;;;10.13;5.85;;;;;;;;;;4975734;28;20555;-82
2023/06/22 00:47:14;;;;;;;10.60;5.55;;;;;;;;;;4979623;28;20373;-82
2023/06/22 00:49:39;;;;;;;8.88;5.47;;;;;;;;;;4979702;28;20358;-82
2023/06/22 00:52:08;;;;;;;10.40;6.18;;;;;;;;;;4977054;28;20031;-82
2023/06/22 00:54:35;;;;;;;6.95;5.78;;;;;;;;;;4964099;28;20023;-81
2023/06/22 00:57:01;;;;;;;10.88;6.28;;;;;;;;;;4979057;28;20022;-81
2023/06/22 00:59:27;;;;;;;9.13;5.78;;;;;;;;;;4966229;28;20090;-81
2023/06/22 01:01:52;;;;;;;9.73;5.85;;;;;;;;;;4984875;28;20081;-81
2023/06/22 01:04:18;;;;;;;10.05;6.13;;;;;;;;;;4985201;28;20090;-81
2023/06/22 01:06:59;;;;;;;11.63;5.85;;;;;;;;;;4994816;28;20023;-82
2023/06/22 01:09:32;;;;;;;10.20;6.38;;;;;;;;;;4984471;28;20090;-81
2023/06/22 01:12:02;;;;;;;9.55;6.13;;;;;;;;;;4975790;28;20031;-82
2023/06/22 01:14:37;;;;;;;8.45;5.82;;;;;;;;;;4979726;28;20030;-82
2023/06/22 01:17:06;;;;;;;12.52;6.13;;;;;;;;;;4965041;28;20099;-84
2023/06/22 01:19:56;;;;;;;7.43;5.40;;;;;;;;;;4979839;28;20056;-83
2023/06/22 01:22:40;;;;;;;12.32;6.10;;;;;;;;;;4974534;28;20033;-83
2023/06/22 01:25:08;;;;;;;9.65;5.65;;;;;;;;;;4978083;28;20019;-83
2023/06/22 01:27:55;;;;;;;13.63;6.55;;;;;;;;;;4973512;28;20027;-83
2023/06/22 01:30:22;;;;;;;12.15;6.95;;;;;;;;;;4963937;28;20118;-82
2023/06/22 01:32:49;;;;;;;10.88;6.95;;;;;;;;;;4983050;28;20022;-83
2023/06/22 01:35:15;;;;;;;13.40;7.40;;;;;;;;;;4997724;28;20025;-82
2023/06/22 01:37:40;;;;;;;13.80;7.35;;;;;;;;;;4981406;28;20023;-83
2023/06/22 01:40:08;;;;;;;11.82;7.25;;;;;;;;;;4976184;28;20026;-83
2023/06/22 01:42:34;;;;;;;16.02;6.72;;;;;;;;;;4980558;28;20030;-82
2023/06/22 01:45:00;;;;;;;10.70;6.78;;;;;;;;;;4984406;28;20034;-83
2023/06/22 01:47:27;;;;;;;9.68;6.88;;;;;;;;;;4997654;28;20536;-82
2023/06/22 01:49:53;;;;;;;13.45;6.50;;;;;;;;;;4972425;28;20485;-83
2023/06/22 01:52:20;;;;;;;9.88;6.88;;;;;;;;;;4972341;28;20026;-82
2023/06/22 01:54:46;;;;;;;12.93;7.13;;;;;;;;;;4983941;28;20023;-82
2023/06/22 01:57:12;;;;;;;10.80;6.75;;;;;;;;;;4975231;28;20018;-81
2023/06/22 01:59:44;;;;;;;10.38;6.63;;;;;;;;;;4982024;28;20037;-81
2023/06/22 02:02:13;;;;;;;11.20;6.80;;;;;;;;;;4981267;28;20106;-82
2023/06/22 02:04:47;;;;;;;15.00;6.70;;;;;;;;;;4976580;28;20035;-83
2023/06/22 02:07:16;;;;;;;13.25;6.50;;;;;;;;;;4978345;28;20050;-82
2023/06/22 02:09:45;;;;;;;17.67;7.32;;;;;;;;;;4989516;28;20030;-82
2023/06/22 02:12:13;;;;;;;10.35;6.72;;;;;;;;;;4994569;28;20023;-83
2023/06/22 02:14:39;;;;;;;9.60;6.55;;;;;;;;;;4965805;28;20088;-82
2023/06/22 02:17:07;;;;;;;9.98;6.82;;;;;;;;;;4975267;28;20027;-82
2023/06/22 02:19:36;;;;;;;13.60;6.65;;;;;;;;;;4977742;28;20195;-82
2023/06/22 02:22:01;;;;;;;11.10;6.68;;;;;;;;;;4978857;28;20029;-82
2023/06/22 02:24:30;;;;;;;12.57;7.43;;;;;;;;;;4978864;28;20027;-82
2023/06/22 02:26:57;;;;;;;9.90;6.85;;;;;;;;;;4957293;28;20019;-82
2023/06/22 02:29:22;;;;;;;12.05;7.45;;;;;;;;;;4976881;28;20125;-82
2023/06/22 02:31:48;;;;;;;10.15;7.32;;;;;;;;;;4977083;28;20034;-82
2023/06/22 02:34:17;;;;;;;13.30;7.22;;;;;;;;;;4976839;28;20038;-82
2023/06/22 02:36:50;;;;;;;11.75;5.97;;;;;;;;;;4972684;28;20038;-82
2023/06/22 02:39:22;;;;;;;10.90;6.68;;;;;;;;;;4976881;28;20059;-81
2023/06/22 02:41:52;;;;;;;8.32;6.30;;;;;;;;;;4979229;28;20046;-82
2023/06/22 02:44:18;;;;;;;11.82;6.57;;;;;;;;;;4960066;28;20023;-83
2023/06/22 02:46:43;;;;;;;13.20;6.38;;;;;;;;;;4971426;28;20027;-82
2023/06/22 02:49:09;;;;;;;10.93;6.57;;;;;;;;;;4973497;28;20054;-82
2023/06/22 02:51:35;;;;;;;9.30;6.70;;;;;;;;;;4973989;28;20112;-82
2023/06/22 02:54:00;;;;;;;9.88;6.95;;;;;;;;;;4975558;28;20026;-81
2023/06/22 02:56:28;;;;;;;10.15;6.60;;;;;;;;;;4973605;28;20042;-82
2023/06/22 02:58:53;;;;;;;10.85;7.55;;;;;;;;;;4978313;28;20094;-82
2023/06/22 03:01:23;;;;;;;12.48;6.85;;;;;;;;;;4977692;28;20022;-81
2023/06/22 03:03:49;;;;;;;10.70;6.50;;;;;;;;;;4971314;28;20019;-82
2023/06/22 03:06:14;;;;;;;11.05;7.45;;;;;;;;;;4981468;28;20022;-81
2023/06/22 03:08:41;;;;;;;10.20;7.13;;;;;;;;;;4993392;28;20042;-81
2023/06/22 03:11:07;;;;;;;10.35;7.35;;;;;;;;;;4996773;28;20031;-81
2023/06/22 03:13:33;;;;;;;9.93;6.32;;;;;;;;;;4992128;28;20034;-83
2023/06/22 03:15:58;;;;;;;11.55;5.93;;;;;;;;;;4960620;28;20499;-83
2023/06/22 03:18:23;;;;;;;10.18;7.03;;;;;;;;;;4977031;28;20430;-82
2023/06/22 03:20:48;;;;;;;10.00;6.70;;;;;;;;;;4968657;28;20487;-82
2023/06/22 03:23:14;;;;;;;9.20;6.57;;;;;;;;;;4974358;28;20042;-82
2023/06/22 03:25:40;;;;;;;10.68;6.95;;;;;;;;;;4974668;28;20037;-82
2023/06/22 03:28:05;;;;;;;14.50;6.65;;;;;;;;;;4972715;28;20066;-81
2023/06/22 03:30:31;;;;;;;10.75;6.93;;;;;;;;;;4970043;28;20060;-82
2023/06/22 03:32:56;;;;;;;9.02;6.57;;;;;;;;;;4978010;28;20030;-81
2023/06/22 03:35:21;;;;;;;11.15;7.00;;;;;;;;;;4977721;28;20042;-81
2023/06/22 03:37:47;;;;;;;8.65;6.78;;;;;;;;;;4971352;28;20078;-81
2023/06/22 03:40:12;;;;;;;10.55;7.03;;;;;;;;;;4979994;28;20027;-82
2023/06/22 03:42:38;;;;;;;14.23;6.95;;;;;;;;;;4992810;28;20076;-82
2023/06/22 03:45:41;;;;;;;11.25;6.45;;;;;;;;;;4977357;28;20114;-83
2023/06/22 03:55:35;;;;;;;10.90;6.82;;;;;;;;;;4979197;28;20053;-81
2023/06/22 04:01:21;;;;;;;10.55;6.75;;;;;;;;;;5414496;22;20073;-81
2023/06/22 04:03:49;;;;;;;11.48;7.70;;;;;;;;;;5029603;28;20040;-80
2023/06/22 04:06:14;;;;;;;11.18;6.47;;;;;;;;;;4996821;28;20026;-80
2023/06/22 04:08:40;;;;;;;11.55;6.32;;;;;;;;;;5012179;28;20037;-81
2023/06/22 04:11:06;;;;;;;8.98;6.75;;;;;;;;;;5017567;28;20022;-81
2023/06/22 04:13:31;;;;;;;11.10;6.32;;;;;;;;;;5011801;28;20037;-81
2023/06/22 04:15:56;;;;;;;10.05;6.18;;;;;;;;;;5001074;28;20494;-82
2023/06/22 04:18:22;;;;;;;8.80;6.30;;;;;;;;;;5009925;28;20030;-80
2023/06/22 04:20:47;;;;;;;12.07;7.18;;;;;;;;;;4988731;28;20037;-81
2023/06/22 04:23:13;;;;;;;9.25;6.35;;;;;;;;;;5000579;28;20023;-83
2023/06/22 04:25:39;;;;;;;12.80;6.57;;;;;;;;;;5005015;28;20109;-82
2023/06/22 04:28:04;;;;;;;14.52;6.38;;;;;;;;;;5005592;28;20017;-82
2023/06/22 04:30:31;;;;;;;11.45;6.60;;;;;;;;;;4995728;28;20065;-82
2023/06/22 04:32:57;;;;;;;10.13;6.10;;;;;;;;;;5009603;28;20443;-82
2023/06/22 04:35:23;;;;;;;9.25;5.70;;;;;;;;;;5011809;28;20038;-82
2023/06/22 04:37:49;;;;;;;9.25;6.93;;;;;;;;;;5003951;28;20028;-82
2023/06/22 04:40:15;;;;;;;11.20;5.82;;;;;;;;;;5021678;28;20093;-82
2023/06/22 04:42:52;;;;;;;8.90;5.93;;;;;;;;;;5019300;28;20109;-83
2023/06/22 04:45:17;;;;;;;10.25;6.53;;;;;;;;;;4999446;28;20021;-82
2023/06/22 04:47:45;;;;;;;11.48;6.88;;;;;;;;;;4987321;28;20216;-83
2023/06/22 04:50:11;;;;;;;11.32;5.93;;;;;;;;;;5018304;28;20029;-82
2023/06/22 04:52:37;;;;;;;8.40;5.78;;;;;;;;;;5020190;28;20030;-81
2023/06/22 04:55:03;;;;;;;9.40;6.10;;;;;;;;;;5001212;28;20018;-81
2023/06/22 04:57:32;;;;;;;8.48;5.88;;;;;;;;;;4990271;28;20029;-81
2023/06/22 05:00:36;;;;;;;16.98;6.78;;;;;;;;;;5005188;28;20029;-81
2023/06/22 05:02:52;;;;;;;11.77;6.22;;;;;;;;;;4994615;28;20030;-81
2023/06/22 05:05:17;;;;;;;9.07;6.45;;;;;;;;;;5004914;28;20018;-82
2023/06/22 05:07:45;;;;;;;11.25;6.35;;;;;;;;;;4998869;28;20069;-82
2023/06/22 05:10:12;;;;;;;9.23;5.90;;;;;;;;;;4997786;28;20096;-82
2023/06/22 05:12:38;;;;;;;9.82;5.65;;;;;;;;;;5001241;28;20026;-81
2023/06/22 05:15:04;;;;;;;13.38;6.15;;;;;;;;;;4998874;28;20085;-81
2023/06/22 05:17:30;;;;;;;12.10;6.00;;;;;;;;;;4994778;28;20516;-80
2023/06/22 05:19:55;;;;;;;9.85;6.43;;;;;;;;;;5000958;28;20496;-82
2023/06/22 05:22:21;;;;;;;10.35;6.25;;;;;;;;;;5008569;28;20109;-81
2023/06/22 05:24:46;;;;;;;9.88;6.50;;;;;;;;;;5012055;28;20053;-82
2023/06/22 05:33:00;;;;;;;9.52;6.03;;;;;;;;;;4980634;28;20042;-81
2023/06/22 05:36:24;;;;;;;8.98;5.88;;;;;;;;;;4979903;28;20043;-82
2023/06/22 05:39:16;;;;;;;9.40;5.90;;;;;;;;;;5034055;22;20441;-84
2023/06/22 05:42:07;;;;;;;9.00;6.20;;;;;;;;;;4989265;28;20026;-85
2023/06/22 05:45:09;;;;;;;10.40;6.68;;;;;;;;;;4981567;28;20107;-85
2023/06/22 05:48:02;;;;;;;9.55;6.03;;;;;;;;;;4984281;28;20504;-85
2023/06/22 05:50:45;;;;;;;8.98;5.63;;;;;;;;;;4986221;28;20030;-84
2023/06/22 05:54:05;;;;;;;13.10;6.72;;;;;;;;;;4970072;28;20393;-85
2023/06/22 05:56:36;;;;;;;11.88;6.60;;;;;;;;;;4977398;28;20101;-85
2023/06/22 05:59:04;;;;;;;12.25;5.95;;;;;;;;;;4980745;28;20034;-85
2023/06/22 06:01:39;;;;;;;14.95;5.97;;;;;;;;;;4967708;28;20035;-83
2023/06/22 06:04:16;;;;;;;8.50;5.80;;;;;;;;;;4942283;29;20461;-84
2023/06/22 06:06:44;;;;;;;10.00;6.35;;;;;;;;;;4958251;28;20107;-83
2023/06/22 06:09:31;;;;;;;;;;;;;;;;;;;;;
2023/06/22 06:12:02;;;;;;;11.60;5.90;;;;;;;;;;4977151;28;20105;-86
2023/06/22 06:14:28;;;;;;;11.65;6.07;;;;;;;;;;4978155;28;20026;-85
2023/06/22 06:17:13;;;;;;;9.60;5.95;;;;;;;;;;4957306;28;20057;-86
2023/06/22 06:19:39;;;;;;;12.13;6.13;;;;;;;;;;4994814;28;20037;-86
2023/06/22 06:22:36;;;;;;;14.60;6.30;;;;;;;;;;4998336;28;20106;-85
2023/06/22 06:25:22;;;;;;;11.65;5.65;;;;;;;;;;4951767;28;20050;-85
2023/06/22 06:31:01;;;;;;;10.15;5.03;;;;;;;;;;4959551;29;20035;-85
2023/06/22 06:34:04;;;;;;;12.73;6.07;;;;;;;;;;4959277;29;20038;-84
2023/06/22 06:36:45;;;;;;;;;;;;;;;;;;;;;
2023/06/22 06:40:07;;;;;;;;;;;;;;;;;;;;;
2023/06/22 06:43:06;;;;;;;11.57;5.55;;;;;;;;;;4975959;28;20091;-85
2023/06/22 06:56:34;;;;;;;13.65;5.72;;;;;;;;;;4868162;29;20108;-88
2023/06/22 07:06:03;;;;;;;9.50;4.65;;;;;;;;;;4934236;29;20438;-85
2023/06/22 07:09:00;;;;;;;7.65;4.50;;;;;;;;;;4967526;28;20026;-85
2023/06/22 07:12:01;;;;;;;6.40;4.47;;;;;;;;;;4973436;28;20047;-85
2023/06/22 07:15:23;;;;;;;10.23;4.78;;;;;;;;;;4985325;28;20042;-87
2023/06/22 07:18:14;;;;;;;7.72;4.40;;;;;;;;;;4968263;28;20500;-87
2023/06/22 07:20:42;;;;;;;10.00;4.78;;;;;;;;;;4982108;28;20038;-87
2023/06/22 07:23:08;;;;;;;6.57;4.30;;;;;;;;;;4979551;28;20476;-85
2023/06/22 07:25:45;;;;;;;9.90;4.60;;;;;;;;;;4980555;28;20093;-86
2023/06/22 07:28:36;;;;;;;8.65;4.85;;;;;;;;;;4966261;28;20030;-85
2023/06/22 07:31:11;;;;;;;7.60;4.88;;;;;;;;;;4959314;28;20046;-87
2023/06/22 07:34:04;;;;;;;12.70;3.60;;;;;;;;;;4984705;28;20038;-86
2023/06/22 07:36:30;;;;;;;6.85;4.28;;;;;;;;;;4973608;28;20019;-85
2023/06/22 07:38:59;;;;;;;6.65;3.60;;;;;;;;;;4985061;28;20033;-85
2023/06/22 07:41:56;;;;;;;9.73;4.05;;;;;;;;;;4959415;28;20457;-86
2023/06/22 07:44:40;;;;;;;;;;;;;;;;;;;;;
2023/06/22 07:47:05;;;;;;;8.68;4.57;;;;;;;;;;4975626;28;20021;-85
2023/06/22 07:50:19;;;;;;;6.45;3.97;;;;;;;;;;4979602;28;20054;-85
2023/06/22 07:53:07;;;;;;;6.95;3.85;;;;;;;;;;4950380;29;20114;-85
2023/06/22 07:55:36;;;;;;;6.90;3.63;;;;;;;;;;4940951;29;20039;-86
2023/06/22 07:59:00;;;;;;;8.35;4.10;;;;;;;;;;4943722;28;20038;-85
2023/06/22 08:01:35;;;;;;;10.05;4.35;;;;;;;;;;4942602;28;20050;-85
2023/06/22 08:04:05;;;;;;;5.93;4.10;;;;;;;;;;4971625;28;20023;-87
2023/06/22 08:06:31;;;;;;;8.10;3.80;;;;;;;;;;4983631;28;20026;-85
2023/06/22 08:09:15;;;;;;;7.78;4.22;;;;;;;;;;4980963;28;20028;-86
2023/06/22 08:11:40;;;;;;;7.75;3.47;;;;;;;;;;4978785;28;20476;-86
2023/06/22 08:14:36;;;;;;;9.13;4.18;;;;;;;;;;4959738;28;20043;-85
2023/06/22 08:17:10;;;;;;;7.72;3.92;;;;;;;;;;4959268;28;20050;-85
2023/06/22 08:19:43;;;;;;;6.00;3.53;;;;;;;;;;4975741;28;20019;-85
2023/06/22 08:22:15;;;;;;;6.57;3.47;;;;;;;;;;4960149;28;20384;-86
2023/06/22 08:25:34;;;;;;;6.15;3.33;;;;;;;;;;4959238;28;20029;-86
2023/06/22 08:28:19;;;;;;;8.90;3.55;;;;;;;;;;4958028;28;20105;-85
2023/06/22 08:31:08;;;;;;;11.60;3.90;;;;;;;;;;4960181;28;20532;-86
2023/06/22 08:34:35;;;;;;;;;;;;;;;;;;;;;
2023/06/22 08:38:13;;;;;;;6.53;3.60;;;;;;;;;;4971671;28;20489;-86
2023/06/22 08:41:18;;;;;;;7.25;3.47;;;;;;;;;;4915496;29;20047;-86
2023/06/22 08:43:47;;;;;;;6.72;3.95;;;;;;;;;;4955484;28;20039;-87
2023/06/22 08:46:38;;;;;;;8.52;4.20;;;;;;;;;;4959564;28;20062;-86
2023/06/22 08:49:08;;;;;;;7.43;3.78;;;;;;;;;;4977034;28;20113;-87
2023/06/22 08:51:47;;;;;;;5.90;3.88;;;;;;;;;;4963071;28;20117;-86
2023/06/22 08:54:15;;;;;;;6.95;4.07;;;;;;;;;;4956668;28;20062;-86
2023/06/22 08:56:44;;;;;;;6.05;3.70;;;;;;;;;;4959436;28;20114;-86
2023/06/22 08:59:09;;;;;;;7.85;4.30;;;;;;;;;;4956944;28;20386;-86
2023/06/22 09:01:35;;;;;;;7.68;4.38;;;;;;;;;;4977175;28;20029;-86
2023/06/22 09:04:07;;;;;;;6.55;3.88;;;;;;;;;;4959154;28;20026;-86
2023/06/22 09:06:46;;;;;;;8.38;4.47;;;;;;;;;;4976053;28;20536;-86
2023/06/22 09:09:27;;;;;;;7.30;4.28;;;;;;;;;;4959156;28;20061;-86
2023/06/22 09:12:34;;;;;;;16.23;4.28;;;;;;;;;;4958675;28;20038;-86
2023/06/22 09:15:19;;;;;;;7.68;3.58;;;;;;;;;;4958497;28;20039;-86
2023/06/22 09:17:57;;;;;;;8.30;3.45;;;;;;;;;;4961445;28;20037;-86
2023/06/22 09:20:24;;;;;;;5.70;3.85;;;;;;;;;;4959543;28;20034;-86
2023/06/22 09:23:02;;;;;;;8.13;3.78;;;;;;;;;;4960367;28;20065;-85
2023/06/22 09:25:40;;;;;;;10.75;3.75;;;;;;;;;;4959819;28;20438;-86
2023/06/22 09:28:42;;;;;;;8.05;3.60;;;;;;;;;;4963535;28;20117;-87
2023/06/22 09:31:17;;;;;;;9.55;4.32;;;;;;;;;;4949267;28;20023;-86
2023/06/22 09:33:55;;;;;;;8.77;4.00;;;;;;;;;;4956850;29;20123;-86
2023/06/22 09:36:23;;;;;;;9.32;4.30;;;;;;;;;;4941279;28;20035;-85
2023/06/22 09:43:36;;;;;;;;;;;;;;;;;;;;;
2023/06/22 09:46:17;;;;;;;8.40;4.13;;;;;;;;;;4863451;29;20067;-86
2023/06/22 09:52:42;;;;;;;10.40;4.47;;;;;;;;;;4955698;29;20482;-86
2023/06/22 09:55:47;;;;;;;9.82;4.32;;;;;;;;;;4932123;29;20043;-88
2023/06/22 09:58:52;;;;;;;8.27;4.03;;;;;;;;;;4939469;29;20493;-87
2023/06/22 10:01:33;;;;;;;6.28;3.50;;;;;;;;;;4936280;29;20063;-87
2023/06/22 10:04:11;;;;;;;8.07;3.78;;;;;;;;;;4968546;28;20023;-87
2023/06/22 10:07:09;;;;;;;8.98;4.20;;;;;;;;;;4974714;28;20030;-87
2023/06/22 10:09:40;;;;;;;6.47;4.15;;;;;;;;;;4992565;28;20057;-87
2023/06/22 10:12:15;;;;;;;6.90;3.78;;;;;;;;;;4991331;28;20392;-87
2023/06/22 10:14:51;;;;;;;14.20;4.35;;;;;;;;;;4957675;29;20038;-86
2023/06/22 10:17:22;;;;;;;10.20;4.10;;;;;;;;;;4941418;28;20437;-86
2023/06/22 10:19:48;;;;;;;16.25;4.03;;;;;;;;;;4956093;28;20043;-87
2023/06/22 10:22:19;;;;;;;7.20;4.10;;;;;;;;;;4959728;28;20081;-85
2023/06/22 10:24:50;;;;;;;7.85;4.32;;;;;;;;;;4978064;28;20026;-87
2023/06/22 10:27:16;;;;;;;8.27;3.90;;;;;;;;;;4959218;28;20030;-86
2023/06/22 10:29:41;;;;;;;8.95;4.18;;;;;;;;;;4958987;28;20034;-87
2023/06/22 10:32:36;;;;;;;10.52;4.05;;;;;;;;;;4959908;28;20023;-87
2023/06/22 10:35:01;;;;;;;8.27;4.30;;;;;;;;;;4960085;28;20031;-87
2023/06/22 10:37:27;;;;;;;8.90;4.28;;;;;;;;;;4978353;28;20030;-89
2023/06/22 10:39:58;;;;;;;7.85;4.03;;;;;;;;;;4988566;28;20054;-87
2023/06/22 10:42:29;;;;;;;8.55;4.57;;;;;;;;;;4971816;28;20078;-87
2023/06/22 10:44:54;;;;;;;9.65;4.40;;;;;;;;;;4967865;28;20122;-87
2023/06/22 10:47:22;;;;;;;10.10;3.88;;;;;;;;;;4958567;28;20057;-87
2023/06/22 10:49:58;;;;;;;10.48;4.03;;;;;;;;;;4976330;28;20388;-87
2023/06/22 10:52:32;;;;;;;8.55;4.07;;;;;;;;;;4978258;28;20100;-87
2023/06/22 10:55:12;;;;;;;11.40;4.13;;;;;;;;;;4979008;28;20030;-87
2023/06/22 10:57:41;;;;;;;7.38;3.85;;;;;;;;;;4977773;28;20396;-87
2023/06/22 11:00:11;;;;;;;11.77;4.47;;;;;;;;;;4977001;28;20476;-87
2023/06/22 11:02:49;;;;;;;13.50;3.95;;;;;;;;;;4963602;28;20034;-89
2023/06/22 11:05:21;;;;;;;17.20;3.97;;;;;;;;;;4964983;28;20038;-87
2023/06/22 11:07:48;;;;;;;7.35;4.13;;;;;;;;;;4969355;28;20027;-87
2023/06/22 11:10:17;;;;;;;13.88;4.20;;;;;;;;;;4978003;28;20023;-86
2023/06/22 11:12:50;;;;;;;6.72;3.95;;;;;;;;;;4951447;28;20078;-86
2023/06/22 11:15:21;;;;;;;21.38;4.43;;;;;;;;;;4979973;28;20138;-86
2023/06/22 11:17:53;;;;;;;8.75;4.00;;;;;;;;;;4987835;28;20028;-87
2023/06/22 11:20:49;;;;;;;8.18;4.30;;;;;;;;;;4957545;28;20046;-86
2023/06/22 11:24:09;;;;;;;11.10;4.35;;;;;;;;;;4912624;29;20047;-86
2023/06/22 11:26:37;;;;;;;10.82;4.07;;;;;;;;;;4919896;29;20064;-86
2023/06/22 11:29:05;;;;;;;10.27;4.55;;;;;;;;;;4979104;28;20027;-86
2023/06/22 11:31:34;;;;;;;7.38;3.55;;;;;;;;;;4975205;28;20027;-86
2023/06/22 11:34:00;;;;;;;9.70;3.88;;;;;;;;;;4959536;28;20128;-87
2023/06/22 11:36:25;;;;;;;9.02;3.88;;;;;;;;;;4954801;28;20130;-86
2023/06/22 11:38:51;;;;;;;10.15;3.80;;;;;;;;;;4990818;28;20029;-86
2023/06/22 11:41:16;;;;;;;11.45;4.28;;;;;;;;;;4980218;28;20022;-87
2023/06/22 11:43:42;;;;;;;7.90;3.95;;;;;;;;;;4970536;28;20125;-84
2023/06/22 11:46:07;;;;;;;11.73;4.15;;;;;;;;;;4974731;28;20110;-85
2023/06/22 11:48:33;;;;;;;10.95;4.93;;;;;;;;;;4978420;28;20022;-85
2023/06/22 11:51:06;;;;;;;15.50;4.95;;;;;;;;;;4975487;28;20030;-85
2023/06/22 11:53:34;;;;;;;11.57;4.40;;;;;;;;;;4977793;28;20034;-85
2023/06/22 11:56:00;;;;;;;9.10;4.18;;;;;;;;;;4975802;28;20026;-85
2023/06/22 11:58:27;;;;;;;8.60;4.00;;;;;;;;;;4976103;28;20027;-84
2023/06/22 12:00:52;;;;;;;6.70;3.88;;;;;;;;;;4958854;28;20054;-85
2023/06/22 12:03:19;;;;;;;8.70;3.85;;;;;;;;;;4962512;28;20596;-85
2023/06/22 12:05:44;;;;;;;7.07;3.83;;;;;;;;;;4973087;28;20256;-85
2023/06/22 12:08:13;;;;;;;14.70;4.22;;;;;;;;;;4982462;28;20070;-87
2023/06/22 12:10:39;;;;;;;8.63;3.97;;;;;;;;;;4974877;28;20033;-85
2023/06/22 12:13:06;;;;;;;17.13;4.35;;;;;;;;;;4982787;28;20117;-85
2023/06/22 12:15:32;;;;;;;13.77;4.38;;;;;;;;;;4975011;28;20366;-86
2023/06/22 12:17:57;;;;;;;9.38;4.57;;;;;;;;;;4956542;28;20500;-85
2023/06/22 12:20:23;;;;;;;9.40;4.20;;;;;;;;;;4975750;28;20540;-85
2023/06/22 12:22:51;;;;;;;13.90;4.28;;;;;;;;;;4948299;28;20102;-85
2023/06/22 12:25:16;;;;;;;9.95;4.13;;;;;;;;;;4990164;28;20637;-85
2023/06/22 12:27:42;;;;;;;10.00;4.10;;;;;;;;;;4964973;28;20042;-85
2023/06/22 12:30:08;;;;;;;11.43;4.05;;;;;;;;;;4946767;28;20057;-85
2023/06/22 12:32:34;;;;;;;11.70;4.28;;;;;;;;;;4984508;28;20029;-85
2023/06/22 12:34:59;;;;;;;13.45;4.25;;;;;;;;;;4991064;28;20026;-85
2023/06/22 12:37:25;;;;;;;9.52;4.53;;;;;;;;;;4961489;28;20556;-85
2023/06/22 12:39:50;;;;;;;19.52;4.72;;;;;;;;;;4988954;28;20023;-85
2023/06/22 12:42:16;;;;;;;12.70;4.40;;;;;;;;;;4992506;28;20440;-85
2023/06/22 12:44:42;;;;;;;10.98;4.50;;;;;;;;;;4964820;28;20049;-85
2023/06/22 12:47:10;;;;;;;12.50;4.43;;;;;;;;;;4973351;28;20054;-85
2023/06/22 12:49:37;;;;;;;12.52;4.00;;;;;;;;;;4965204;28;20022;-85
2023/06/22 12:52:03;;;;;;;10.05;4.35;;;;;;;;;;4971562;28;20099;-86
2023/06/22 12:54:32;;;;;;;14.48;4.40;;;;;;;;;;4971729;28;20026;-85
2023/06/22 12:56:57;;;;;;;17.92;4.30;;;;;;;;;;4967561;28;20053;-87
2023/06/22 12:59:23;;;;;;;10.68;4.15;;;;;;;;;;4992358;28;20368;-87
2023/06/22 13:01:48;;;;;;;13.60;4.22;;;;;;;;;;4972935;28;20027;-86
2023/06/22 13:04:15;;;;;;;10.20;4.32;;;;;;;;;;4976578;28;20026;-84
2023/06/22 13:06:47;;;;;;;11.82;4.57;;;;;;;;;;4973632;28;20512;-86
2023/06/22 13:09:12;;;;;;;13.20;4.07;;;;;;;;;;4969634;28;20026;-86
2023/06/22 13:11:38;;;;;;;8.30;4.30;;;;;;;;;;4974210;28;20041;-85
2023/06/22 13:14:03;;;;;;;12.57;4.47;;;;;;;;;;4980818;28;20179;-86
2023/06/22 13:16:28;;;;;;;8.73;4.00;;;;;;;;;;4976621;28;20034;-85
2023/06/22 13:18:54;;;;;;;8.77;4.05;;;;;;;;;;4975677;28;20170;-88
2023/06/22 13:21:19;;;;;;;13.77;4.50;;;;;;;;;;4979412;28;20022;-84
2023/06/22 13:23:44;;;;;;;11.77;4.03;;;;;;;;;;5006918;28;20026;-87
2023/06/22 13:26:10;;;;;;;9.35;4.18;;;;;;;;;;4993349;28;20081;-84
2023/06/22 13:28:35;;;;;;;19.13;4.93;;;;;;;;;;5000074;28;20049;-87
2023/06/22 13:31:01;;;;;;;16.73;4.53;;;;;;;;;;4971462;28;20031;-87
2023/06/22 13:33:26;;;;;;;12.15;5.15;;;;;;;;;;4967044;28;20030;-87
2023/06/22 13:35:51;;;;;;;12.75;4.50;;;;;;;;;;4979983;28;20030;-88
2023/06/22 13:38:17;;;;;;;10.20;4.78;;;;;;;;;;4997602;28;20050;-84
2023/06/22 13:40:42;;;;;;;12.20;4.35;;;;;;;;;;4983698;28;20023;-85
2023/06/22 13:43:08;;;;;;;7.82;4.03;;;;;;;;;;4959754;28;20117;-85
2023/06/22 13:45:33;;;;;;;9.23;4.40;;;;;;;;;;4957035;29;20083;-86
2023/06/22 13:47:59;;;;;;;9.35;4.07;;;;;;;;;;4967900;28;20029;-85
2023/06/22 13:50:29;;;;;;;12.68;4.43;;;;;;;;;;4952147;28;20063;-85
2023/06/22 13:52:55;;;;;;;11.23;4.03;;;;;;;;;;4958854;28;20026;-87
2023/06/22 13:55:22;;;;;;;10.93;4.22;;;;;;;;;;4965925;28;20097;-87
2023/06/22 13:57:47;;;;;;;11.73;4.47;;;;;;;;;;4971372;28;20026;-86
2023/06/22 14:00:16;;;;;;;15.70;4.20;;;;;;;;;;4958731;28;20058;-85
2023/06/22 14:02:44;;;;;;;13.95;4.45;;;;;;;;;;4974439;28;20027;-84
2023/06/22 14:05:12;;;;;;;12.93;4.18;;;;;;;;;;4972059;28;20037;-87
2023/06/22 14:08:09;;;;;;;7.85;4.10;;;;;;;;;;4954831;28;20115;-86
2023/06/22 14:10:37;;;;;;;9.25;4.07;;;;;;;;;;4970825;28;20162;-85
2023/06/22 14:13:05;;;;;;;13.75;4.18;;;;;;;;;;4964559;28;20035;-86
2023/06/22 14:15:31;;;;;;;12.50;4.53;;;;;;;;;;4968871;28;20421;-85
2023/06/22 14:17:56;;;;;;;7.72;4.05;;;;;;;;;;4989587;28;20022;-85
2023/06/22 14:20:47;;;;;;;12.80;4.38;;;;;;;;;;4967208;28;20023;-87
2023/06/22 14:23:13;;;;;;;8.88;3.88;;;;;;;;;;4958453;28;20038;-85
2023/06/22 14:25:39;;;;;;;11.93;4.10;;;;;;;;;;4949526;28;20598;-86
2023/06/22 14:28:05;;;;;;;14.95;5.75;;;;;;;;;;4961825;28;20081;-86
2023/06/22 14:30:53;;;;;;;11.85;4.25;;;;;;;;;;4955871;29;20047;-85
2023/06/22 14:33:18;;;;;;;10.77;4.43;;;;;;;;;;4964601;28;20044;-87
2023/06/22 14:35:44;;;;;;;12.57;4.50;;;;;;;;;;4947644;28;20433;-85
2023/06/22 14:38:09;;;;;;;9.25;4.43;;;;;;;;;;4959994;28;20031;-85
2023/06/22 14:40:37;;;;;;;8.77;4.30;;;;;;;;;;4956870;28;20034;-85
2023/06/22 14:43:03;;;;;;;7.85;3.22;;;;;;;;;;4981784;28;20026;-85
2023/06/22 14:45:28;;;;;;;9.20;3.38;;;;;;;;;;4976123;28;20026;-85
2023/06/22 14:47:54;;;;;;;7.22;3.20;;;;;;;;;;4952602;28;20079;-86
2023/06/22 14:50:19;;;;;;;15.20;4.60;;;;;;;;;;4959411;28;20031;-88
2023/06/22 14:52:44;;;;;;;13.20;3.70;;;;;;;;;;4969249;28;20071;-88
2023/06/22 14:55:44;;;;;;;9.10;3.53;;;;;;;;;;4960691;28;20051;-87
2023/06/22 14:58:11;;;;;;;8.07;3.10;;;;;;;;;;4960657;28;20122;-86
2023/06/22 15:01:08;;;;;;;10.80;2.55;;;;;;;;;;4970984;28;20031;-85
2023/06/22 15:03:42;;;;;;;8.27;2.60;;;;;;;;;;4959654;28;20041;-86
2023/06/22 15:06:14;;;;;;;6.88;2.50;;;;;;;;;;4961640;28;20118;-86
2023/06/22 15:08:46;;;;;;;7.22;2.60;;;;;;;;;;4962351;28;20058;-86
2023/06/22 15:11:27;;;;;;;9.25;2.33;;;;;;;;;;4953291;28;20026;-86
2023/06/22 15:13:52;;;;;;;11.07;2.53;;;;;;;;;;4959427;28;20114;-86
2023/06/22 15:16:18;;;;;;;12.75;2.92;;;;;;;;;;4993168;28;20062;-86
2023/06/22 15:18:45;;;;;;;18.60;3.63;;;;;;;;;;4976484;28;20030;-86
2023/06/22 15:21:10;;;;;;;11.43;2.30;;;;;;;;;;4970208;28;20026;-86
2023/06/22 15:23:36;;;;;;;5.60;2.75;;;;;;;;;;4980841;28;20503;-86
2023/06/22 15:26:04;;;;;;;10.77;3.08;;;;;;;;;;4973820;28;20033;-86
2023/06/22 15:28:32;;;;;;;8.13;2.88;;;;;;;;;;4976871;28;20069;-88
2023/06/22 15:30:57;;;;;;;8.57;2.65;;;;;;;;;;4963353;28;20142;-86
2023/06/22 15:33:24;;;;;;;9.27;2.72;;;;;;;;;;4964854;28;20103;-86
2023/06/22 15:35:49;;;;;;;6.68;2.60;;;;;;;;;;4962899;28;20050;-86
2023/06/22 15:38:15;;;;;;;7.63;2.67;;;;;;;;;;4966640;28;20054;-86
2023/06/22 15:40:43;;;;;;;6.55;2.03;;;;;;;;;;4951227;29;20065;-86
2023/06/22 15:43:20;;;;;;;10.82;2.35;;;;;;;;;;4981466;28;20030;-86
2023/06/22 15:45:45;;;;;;;12.40;2.92;;;;;;;;;;4980731;28;20042;-87
2023/06/22 15:48:10;;;;;;;9.23;2.63;;;;;;;;;;4972073;28;20026;-87
2023/06/22 15:50:36;;;;;;;6.20;2.38;;;;;;;;;;4975531;28;20034;-86
2023/06/22 15:53:01;;;;;;;11.73;2.88;;;;;;;;;;4960318;28;20035;-86
2023/06/22 15:55:27;;;;;;;8.80;2.45;;;;;;;;;;4966453;28;20601;-87
2023/06/22 15:57:52;;;;;;;8.88;2.80;;;;;;;;;;4950895;28;20110;-86
2023/06/22 16:00:18;;;;;;;10.80;3.22;;;;;;;;;;4964905;28;20035;-86